sensor_id;sensor_type;location;lat;lon;timestamp;pressure;altitude;pressure_sealevel;temperature;humidity
72308;BME280;60257;42.638;23.376;2023-04-09T00:01:45;94803.41;;;6.38;81.16
72308;BME280;60257;42.638;23.376;2023-04-09T00:04:11;94777.56;;;6.18;81.27
72308;BME280;60257;42.638;23.376;2023-04-09T00:06:36;94801.63;;;6.34;81.32
72308;BME280;60257;42.638;23.376;2023-04-09T00:09:02;94800.69;;;6.38;81.05
72308;BME280;60257;42.638;23.376;2023-04-09T00:11:27;94801.97;;;6.41;80.87
72308;BME280;60257;42.638;23.376;2023-04-09T00:13:53;94788.66;;;6.31;80.61
72308;BME280;60257;42.638;23.376;2023-04-09T00:16:18;94791.19;;;6.27;79.97
72308;BME280;60257;42.638;23.376;2023-04-09T00:18:43;94800.50;;;6.26;79.76
72308;BME280;60257;42.638;23.376;2023-04-09T00:21:09;94803.03;;;6.23;80.04
72308;BME280;60257;42.638;23.376;2023-04-09T00:23:35;94797.25;;;6.15;79.98
72308;BME280;60257;42.638;23.376;2023-04-09T00:26:01;94805.28;;;6.21;79.85
72308;BME280;60257;42.638;23.376;2023-04-09T00:28:26;94805.91;;;6.17;79.54
72308;BME280;60257;42.638;23.376;2023-04-09T00:30:51;94808.63;;;6.17;79.44
72308;BME280;60257;42.638;23.376;2023-04-09T00:33:17;94799.63;;;6.08;79.76
72308;BME280;60257;42.638;23.376;2023-04-09T00:35:42;94802.19;;;6.13;79.71
72308;BME280;60257;42.638;23.376;2023-04-09T00:38:08;94810.38;;;6.13;79.72
72308;BME280;60257;42.638;23.376;2023-04-09T00:40:33;94809.56;;;6.13;80.16
72308;BME280;60257;42.638;23.376;2023-04-09T00:42:59;94808.09;;;6.07;80.11
72308;BME280;60257;42.638;23.376;2023-04-09T00:45:25;94793.38;;;6.08;80.05
72308;BME280;60257;42.638;23.376;2023-04-09T00:47:51;94803.81;;;6.14;80.10
72308;BME280;60257;42.638;23.376;2023-04-09T00:50:17;94795.97;;;6.13;79.92
72308;BME280;60257;42.638;23.376;2023-04-09T00:52:43;94800.28;;;6.14;79.70
72308;BME280;60257;42.638;23.376;2023-04-09T00:55:09;94797.41;;;6.10;79.73
72308;BME280;60257;42.638;23.376;2023-04-09T00:57:35;94807.34;;;6.15;79.54
72308;BME280;60257;42.638;23.376;2023-04-09T01:00:00;94810.38;;;6.13;79.88
72308;BME280;60257;42.638;23.376;2023-04-09T01:02:26;94808.75;;;6.12;80.02
72308;BME280;60257;42.638;23.376;2023-04-09T01:04:52;94809.22;;;6.06;80.49
72308;BME280;60257;42.638;23.376;2023-04-09T01:10:18;94814.56;;;6.11;80.27
72308;BME280;60257;42.638;23.376;2023-04-09T01:15:17;94819.66;;;6.04;80.73
72308;BME280;60257;42.638;23.376;2023-04-09T01:18:00;94808.75;;;6.04;80.58
72308;BME280;60257;42.638;23.376;2023-04-09T01:20:46;94820.06;;;5.97;81.03
72308;BME280;60257;42.638;23.376;2023-04-09T01:26:40;94809.53;;;6.04;80.32
72308;BME280;60257;42.638;23.376;2023-04-09T01:29:09;94809.88;;;6.03;79.84
72308;BME280;60257;42.638;23.376;2023-04-09T01:31:37;94812.25;;;6.04;79.86
72308;BME280;60257;42.638;23.376;2023-04-09T01:34:04;94804.56;;;5.98;79.63
72308;BME280;60257;42.638;23.376;2023-04-09T01:36:31;94796.84;;;5.91;80.06
72308;BME280;60257;42.638;23.376;2023-04-09T01:38:59;94820.06;;;5.97;80.32
72308;BME280;60257;42.638;23.376;2023-04-09T01:41:25;94818.34;;;6.01;79.98
72308;BME280;60257;42.638;23.376;2023-04-09T01:43:52;94797.88;;;5.81;80.18
72308;BME280;60257;42.638;23.376;2023-04-09T01:46:19;94819.47;;;6.00;79.82
72308;BME280;60257;42.638;23.376;2023-04-09T01:48:45;94800.69;;;5.90;79.99
72308;BME280;60257;42.638;23.376;2023-04-09T01:51:12;94813.66;;;5.93;80.18
72308;BME280;60257;42.638;23.376;2023-04-09T01:53:41;94811.88;;;5.89;80.01
72308;BME280;60257;42.638;23.376;2023-04-09T01:56:08;94814.34;;;5.76;80.23
72308;BME280;60257;42.638;23.376;2023-04-09T01:58:33;94801.81;;;5.67;80.40
72308;BME280;60257;42.638;23.376;2023-04-09T02:01:14;94811.72;;;5.63;80.61
72308;BME280;60257;42.638;23.376;2023-04-09T02:03:46;94816.19;;;5.59;80.69
72308;BME280;60257;42.638;23.376;2023-04-09T02:06:24;94817.44;;;5.53;80.64
72308;BME280;60257;42.638;23.376;2023-04-09T02:08:52;94812.38;;;5.37;81.47
72308;BME280;60257;42.638;23.376;2023-04-09T02:11:19;94820.38;;;5.34;81.59
72308;BME280;60257;42.638;23.376;2023-04-09T02:13:48;94827.09;;;5.36;81.73
72308;BME280;60257;42.638;23.376;2023-04-09T02:16:14;94804.31;;;5.24;81.68
72308;BME280;60257;42.638;23.376;2023-04-09T02:18:40;94817.59;;;5.25;82.15
72308;BME280;60257;42.638;23.376;2023-04-09T02:21:06;94823.13;;;5.20;82.10
72308;BME280;60257;42.638;23.376;2023-04-09T02:23:32;94809.47;;;5.12;82.29
72308;BME280;60257;42.638;23.376;2023-04-09T02:25:58;94808.06;;;5.14;82.59
72308;BME280;60257;42.638;23.376;2023-04-09T02:28:23;94806.75;;;5.12;82.72
72308;BME280;60257;42.638;23.376;2023-04-09T02:30:49;94817.03;;;5.15;83.14
72308;BME280;60257;42.638;23.376;2023-04-09T02:33:14;94810.47;;;5.16;82.21
72308;BME280;60257;42.638;23.376;2023-04-09T02:35:40;94784.97;;;5.03;82.55
72308;BME280;60257;42.638;23.376;2023-04-09T02:38:07;94796.88;;;5.16;82.23
72308;BME280;60257;42.638;23.376;2023-04-09T02:40:38;94797.69;;;5.16;82.08
72308;BME280;60257;42.638;23.376;2023-04-09T02:43:04;94805.94;;;5.11;82.72
72308;BME280;60257;42.638;23.376;2023-04-09T02:45:29;94813.34;;;5.11;82.59
72308;BME280;60257;42.638;23.376;2023-04-09T02:47:55;94788.91;;;4.97;82.69
72308;BME280;60257;42.638;23.376;2023-04-09T02:50:20;94806.75;;;5.12;82.77
72308;BME280;60257;42.638;23.376;2023-04-09T02:52:46;94798.59;;;5.12;83.29
72308;BME280;60257;42.638;23.376;2023-04-09T02:55:12;94798.75;;;5.07;83.09
72308;BME280;60257;42.638;23.376;2023-04-09T02:57:38;94788.16;;;5.05;83.04
72308;BME280;60257;42.638;23.376;2023-04-09T03:00:03;94798.13;;;5.10;83.30
72308;BME280;60257;42.638;23.376;2023-04-09T03:02:29;94800.34;;;5.08;83.26
72308;BME280;60257;42.638;23.376;2023-04-09T03:04:54;94792.31;;;5.02;83.35
72308;BME280;60257;42.638;23.376;2023-04-09T03:07:21;94803.38;;;5.06;83.54
72308;BME280;60257;42.638;23.376;2023-04-09T03:09:46;94806.72;;;5.03;83.78
72308;BME280;60257;42.638;23.376;2023-04-09T03:12:12;94794.03;;;4.98;83.30
72308;BME280;60257;42.638;23.376;2023-04-09T03:14:37;94795.16;;;4.97;83.59
72308;BME280;60257;42.638;23.376;2023-04-09T03:17:03;94796.88;;;4.93;83.25
72308;BME280;60257;42.638;23.376;2023-04-09T03:19:30;94795.06;;;4.89;83.54
72308;BME280;60257;42.638;23.376;2023-04-09T03:21:55;94805.03;;;4.93;83.75
72308;BME280;60257;42.638;23.376;2023-04-09T03:24:20;94799.91;;;4.92;83.24
72308;BME280;60257;42.638;23.376;2023-04-09T03:26:46;94800.72;;;4.92;83.34
72308;BME280;60257;42.638;23.376;2023-04-09T03:29:11;94792.69;;;4.87;83.28
72308;BME280;60257;42.638;23.376;2023-04-09T03:31:37;94793.00;;;4.86;83.09
72308;BME280;60257;42.638;23.376;2023-04-09T03:34:05;94811.06;;;4.90;83.25
72308;BME280;60257;42.638;23.376;2023-04-09T03:36:30;94807.06;;;4.88;83.05
72308;BME280;60257;42.638;23.376;2023-04-09T03:38:56;94800.03;;;4.87;83.03
72308;BME280;60257;42.638;23.376;2023-04-09T03:41:22;94807.75;;;4.93;82.70
72308;BME280;60257;42.638;23.376;2023-04-09T03:43:47;94804.75;;;4.95;83.08
72308;BME280;60257;42.638;23.376;2023-04-09T03:46:16;94815.47;;;5.00;82.53
72308;BME280;60257;42.638;23.376;2023-04-09T03:48:42;94805.91;;;5.02;82.67
72308;BME280;60257;42.638;23.376;2023-04-09T03:51:12;94810.53;;;5.02;82.54
72308;BME280;60257;42.638;23.376;2023-04-09T03:53:39;94808.13;;;5.00;82.59
72308;BME280;60257;42.638;23.376;2023-04-09T03:56:04;94811.72;;;5.10;82.48
72308;BME280;60257;42.638;23.376;2023-04-09T03:58:30;94805.78;;;5.08;82.48
72308;BME280;60257;42.638;23.376;2023-04-09T04:00:55;94814.31;;;5.15;82.58
72308;BME280;60257;42.638;23.376;2023-04-09T04:03:21;94816.22;;;5.14;82.46
72308;BME280;60257;42.638;23.376;2023-04-09T04:05:47;94810.28;;;5.12;82.37
72308;BME280;60257;42.638;23.376;2023-04-09T04:08:13;94814.81;;;5.17;82.29
72308;BME280;60257;42.638;23.376;2023-04-09T04:10:38;94808.44;;;5.21;82.25
72308;BME280;60257;42.638;23.376;2023-04-09T04:13:05;94821.78;;;5.31;81.96
72308;BME280;60257;42.638;23.376;2023-04-09T04:15:32;94813.00;;;5.34;81.68
72308;BME280;60257;42.638;23.376;2023-04-09T04:17:58;94821.22;;;5.43;80.87
72308;BME280;60257;42.638;23.376;2023-04-09T04:20:23;94817.38;;;5.44;80.84
72308;BME280;60257;42.638;23.376;2023-04-09T04:22:48;94825.59;;;5.53;80.95
72308;BME280;60257;42.638;23.376;2023-04-09T04:25:14;94825.28;;;5.54;80.47
72308;BME280;60257;42.638;23.376;2023-04-09T04:27:41;94819.22;;;5.57;80.40
72308;BME280;60257;42.638;23.376;2023-04-09T04:30:07;94821.63;;;5.59;80.13
72308;BME280;60257;42.638;23.376;2023-04-09T04:32:32;94827.78;;;5.73;79.98
72308;BME280;60257;42.638;23.376;2023-04-09T04:34:58;94826.84;;;5.77;79.81
72308;BME280;60257;42.638;23.376;2023-04-09T04:37:23;94815.97;;;5.77;79.56
72308;BME280;60257;42.638;23.376;2023-04-09T04:39:49;94827.91;;;5.90;79.53
72308;BME280;60257;42.638;23.376;2023-04-09T04:42:16;94826.91;;;5.86;79.55
72308;BME280;60257;42.638;23.376;2023-04-09T04:44:42;94834.94;;;5.91;79.70
72308;BME280;60257;42.638;23.376;2023-04-09T04:47:08;94820.16;;;5.84;79.62
72308;BME280;60257;42.638;23.376;2023-04-09T04:49:33;94823.44;;;5.94;79.78
72308;BME280;60257;42.638;23.376;2023-04-09T04:51:59;94832.06;;;5.96;79.93
72308;BME280;60257;42.638;23.376;2023-04-09T04:54:24;94829.75;;;6.12;79.80
72308;BME280;60257;42.638;23.376;2023-04-09T04:56:50;94818.72;;;6.17;78.68
72308;BME280;60257;42.638;23.376;2023-04-09T04:59:15;94834.13;;;6.30;78.26
72308;BME280;60257;42.638;23.376;2023-04-09T05:01:41;94833.06;;;6.40;78.01
72308;BME280;60257;42.638;23.376;2023-04-09T05:04:06;94832.59;;;6.46;78.01
72308;BME280;60257;42.638;23.376;2023-04-09T05:06:32;94837.88;;;6.51;77.74
72308;BME280;60257;42.638;23.376;2023-04-09T05:08:57;94830.19;;;6.53;77.87
72308;BME280;60257;42.638;23.376;2023-04-09T05:11:24;94834.88;;;6.70;77.02
72308;BME280;60257;42.638;23.376;2023-04-09T05:13:49;94831.06;;;6.88;76.84
72308;BME280;60257;42.638;23.376;2023-04-09T05:16:18;94837.47;;;6.92;76.67
72308;BME280;60257;42.638;23.376;2023-04-09T05:18:45;94825.47;;;7.02;76.28
72308;BME280;60257;42.638;23.376;2023-04-09T05:21:11;94838.75;;;7.21;75.65
72308;BME280;60257;42.638;23.376;2023-04-09T05:23:36;94838.94;;;7.33;75.13
72308;BME280;60257;42.638;23.376;2023-04-09T05:26:02;94834.28;;;7.33;74.14
72308;BME280;60257;42.638;23.376;2023-04-09T05:28:27;94823.50;;;7.28;74.70
72308;BME280;60257;42.638;23.376;2023-04-09T05:30:53;94841.97;;;7.40;74.83
72308;BME280;60257;42.638;23.376;2023-04-09T05:33:18;94836.03;;;7.38;74.47
72308;BME280;60257;42.638;23.376;2023-04-09T05:35:44;94842.28;;;7.39;75.34
72308;BME280;60257;42.638;23.376;2023-04-09T05:38:10;94829.94;;;7.50;74.50
72308;BME280;60257;42.638;23.376;2023-04-09T05:40:35;94826.69;;;7.56;74.19
72308;BME280;60257;42.638;23.376;2023-04-09T05:43:01;94826.53;;;7.53;73.91
72308;BME280;60257;42.638;23.376;2023-04-09T05:45:26;94822.06;;;7.48;73.80
72308;BME280;60257;42.638;23.376;2023-04-09T05:47:54;94828.94;;;7.54;73.51
72308;BME280;60257;42.638;23.376;2023-04-09T05:50:20;94832.28;;;7.60;73.63
72308;BME280;60257;42.638;23.376;2023-04-09T05:52:46;94836.63;;;7.69;73.15
72308;BME280;60257;42.638;23.376;2023-04-09T05:55:11;94831.31;;;7.73;73.08
72308;BME280;60257;42.638;23.376;2023-04-09T05:57:37;94826.16;;;7.80;72.53
72308;BME280;60257;42.638;23.376;2023-04-09T06:00:03;94837.38;;;7.87;71.63
72308;BME280;60257;42.638;23.376;2023-04-09T06:02:28;94826.81;;;7.77;72.28
72308;BME280;60257;42.638;23.376;2023-04-09T06:04:53;94843.97;;;7.86;71.85
72308;BME280;60257;42.638;23.376;2023-04-09T06:07:19;94839.09;;;8.00;71.69
72308;BME280;60257;42.638;23.376;2023-04-09T06:09:45;94842.44;;;8.06;70.55
72308;BME280;60257;42.638;23.376;2023-04-09T06:12:12;94837.28;;;8.13;70.50
72308;BME280;60257;42.638;23.376;2023-04-09T06:14:37;94841.75;;;8.35;69.88
72308;BME280;60257;42.638;23.376;2023-04-09T06:17:03;94836.38;;;8.47;69.48
72308;BME280;60257;42.638;23.376;2023-04-09T06:19:28;94836.25;;;8.43;69.01
72308;BME280;60257;42.638;23.376;2023-04-09T06:21:54;94847.25;;;8.56;70.03
72308;BME280;60257;42.638;23.376;2023-04-09T06:24:20;94837.41;;;8.63;69.18
72308;BME280;60257;42.638;23.376;2023-04-09T06:26:45;94835.97;;;8.66;68.29
72308;BME280;60257;42.638;23.376;2023-04-09T06:29:11;94839.66;;;8.61;68.17
72308;BME280;60257;42.638;23.376;2023-04-09T06:31:36;94842.72;;;8.60;68.50
72308;BME280;60257;42.638;23.376;2023-04-09T06:34:02;94846.50;;;8.76;68.85
72308;BME280;60257;42.638;23.376;2023-04-09T06:36:27;94841.22;;;8.71;67.37
72308;BME280;60257;42.638;23.376;2023-04-09T06:38:54;94838.44;;;8.79;67.33
72308;BME280;60257;42.638;23.376;2023-04-09T06:41:21;94849.22;;;8.76;67.68
72308;BME280;60257;42.638;23.376;2023-04-09T06:43:47;94848.06;;;8.85;67.54
72308;BME280;60257;42.638;23.376;2023-04-09T06:46:13;94848.31;;;8.93;66.08
72308;BME280;60257;42.638;23.376;2023-04-09T06:48:44;94845.56;;;8.72;65.89
72308;BME280;60257;42.638;23.376;2023-04-09T06:51:10;94849.19;;;8.84;66.91
72308;BME280;60257;42.638;23.376;2023-04-09T06:53:39;94848.28;;;9.01;65.22
72308;BME280;60257;42.638;23.376;2023-04-09T06:56:04;94832.59;;;8.90;65.56
72308;BME280;60257;42.638;23.376;2023-04-09T06:58:30;94845.69;;;9.05;65.22
72308;BME280;60257;42.638;23.376;2023-04-09T07:00:55;94855.16;;;9.07;65.43
72308;BME280;60257;42.638;23.376;2023-04-09T07:03:21;94851.59;;;9.07;65.02
72308;BME280;60257;42.638;23.376;2023-04-09T07:05:47;94858.09;;;9.23;64.84
72308;BME280;60257;42.638;23.376;2023-04-09T07:08:13;94851.59;;;9.07;63.26
72308;BME280;60257;42.638;23.376;2023-04-09T07:10:39;94854.09;;;9.20;63.83
72308;BME280;60257;42.638;23.376;2023-04-09T07:13:04;94853.03;;;9.13;64.20
72308;BME280;60257;42.638;23.376;2023-04-09T07:15:30;94860.50;;;9.24;64.04
72308;BME280;60257;42.638;23.376;2023-04-09T07:17:55;94855.44;;;9.35;63.21
72308;BME280;60257;42.638;23.376;2023-04-09T07:20:22;94853.53;;;9.48;63.22
72308;BME280;60257;42.638;23.376;2023-04-09T07:22:47;94858.00;;;9.52;61.98
72308;BME280;60257;42.638;23.376;2023-04-09T07:25:14;94856.78;;;9.62;62.36
72308;BME280;60257;42.638;23.376;2023-04-09T07:27:39;94853.97;;;9.71;61.87
72308;BME280;60257;42.638;23.376;2023-04-09T07:30:05;94858.53;;;9.67;60.85
72308;BME280;60257;42.638;23.376;2023-04-09T07:32:31;94856.75;;;9.50;60.82
72308;BME280;60257;42.638;23.376;2023-04-09T07:34:57;94852.31;;;9.78;60.49
72308;BME280;60257;42.638;23.376;2023-04-09T07:37:24;94862.03;;;9.88;59.81
72308;BME280;60257;42.638;23.376;2023-04-09T07:39:50;94858.66;;;10.03;59.99
72308;BME280;60257;42.638;23.376;2023-04-09T07:42:15;94866.56;;;10.17;58.74
72308;BME280;60257;42.638;23.376;2023-04-09T07:44:41;94862.88;;;10.00;60.34
72308;BME280;60257;42.638;23.376;2023-04-09T07:47:08;94870.19;;;10.09;61.13
72308;BME280;60257;42.638;23.376;2023-04-09T07:49:37;94864.47;;;10.01;60.96
72308;BME280;60257;42.638;23.376;2023-04-09T07:52:03;94861.50;;;9.94;60.21
72308;BME280;60257;42.638;23.376;2023-04-09T07:54:29;94866.97;;;9.94;60.50
72308;BME280;60257;42.638;23.376;2023-04-09T07:56:58;94877.13;;;9.94;60.81
72308;BME280;60257;42.638;23.376;2023-04-09T07:59:23;94877.63;;;9.75;60.61
72308;BME280;60257;42.638;23.376;2023-04-09T08:01:49;94879.09;;;9.73;61.00
72308;BME280;60257;42.638;23.376;2023-04-09T08:04:15;94881.13;;;9.63;60.77
72308;BME280;60257;42.638;23.376;2023-04-09T08:06:40;94877.81;;;9.70;60.13
72308;BME280;60257;42.638;23.376;2023-04-09T08:09:06;94885.94;;;9.67;60.54
72308;BME280;60257;42.638;23.376;2023-04-09T08:11:31;94897.88;;;9.62;60.78
72308;BME280;60257;42.638;23.376;2023-04-09T08:13:57;94890.28;;;9.68;60.60
72308;BME280;60257;42.638;23.376;2023-04-09T08:16:25;94898.38;;;9.76;59.74
72308;BME280;60257;42.638;23.376;2023-04-09T08:18:50;94893.81;;;9.47;60.63
72308;BME280;60257;42.638;23.376;2023-04-09T08:21:17;94893.94;;;9.30;62.80
72308;BME280;60257;42.638;23.376;2023-04-09T08:23:42;94891.06;;;9.47;61.34
72308;BME280;60257;42.638;23.376;2023-04-09T08:26:08;94893.47;;;9.49;61.34
72308;BME280;60257;42.638;23.376;2023-04-09T08:28:33;94904.03;;;9.59;61.21
72308;BME280;60257;42.638;23.376;2023-04-09T08:30:58;94901.47;;;9.54;61.24
72308;BME280;60257;42.638;23.376;2023-04-09T08:33:24;94896.22;;;9.49;61.11
72308;BME280;60257;42.638;23.376;2023-04-09T08:35:50;94905.09;;;9.25;62.72
72308;BME280;60257;42.638;23.376;2023-04-09T08:38:17;94895.94;;;9.42;62.30
72308;BME280;60257;42.638;23.376;2023-04-09T08:40:43;94901.09;;;9.64;61.92
72308;BME280;60257;42.638;23.376;2023-04-09T08:43:09;94893.09;;;9.59;62.08
72308;BME280;60257;42.638;23.376;2023-04-09T08:45:39;94886.84;;;9.71;62.20
72308;BME280;60257;42.638;23.376;2023-04-09T08:48:08;94892.84;;;9.85;61.69
72308;BME280;60257;42.638;23.376;2023-04-09T08:50:35;94897.97;;;9.86;62.14
72308;BME280;60257;42.638;23.376;2023-04-09T08:53:05;94882.66;;;10.06;60.96
72308;BME280;60257;42.638;23.376;2023-04-09T08:55:31;94883.22;;;10.12;61.19
72308;BME280;60257;42.638;23.376;2023-04-09T08:57:59;94888.66;;;10.20;59.83
72308;BME280;60257;42.638;23.376;2023-04-09T09:00:25;94887.44;;;10.54;59.99
72308;BME280;60257;42.638;23.376;2023-04-09T09:03:08;94887.25;;;10.59;59.30
72308;BME280;60257;42.638;23.376;2023-04-09T09:05:39;94865.75;;;10.61;58.84
72308;BME280;60257;42.638;23.376;2023-04-09T09:08:09;94885.06;;;10.89;58.98
72308;BME280;60257;42.638;23.376;2023-04-09T09:10:44;94876.81;;;10.77;59.60
72308;BME280;60257;42.638;23.376;2023-04-09T09:13:26;94874.22;;;10.80;58.78
72308;BME280;60257;42.638;23.376;2023-04-09T09:15:53;94871.44;;;10.93;58.45
72308;BME280;60257;42.638;23.376;2023-04-09T09:18:40;94861.41;;;10.97;58.72
72308;BME280;60257;42.638;23.376;2023-04-09T09:21:11;94872.72;;;10.95;58.47
72308;BME280;60257;42.638;23.376;2023-04-09T09:23:36;94848.84;;;10.84;57.40
72308;BME280;60257;42.638;23.376;2023-04-09T09:26:28;94861.53;;;10.88;57.76
72308;BME280;60257;42.638;23.376;2023-04-09T09:28:55;94860.47;;;11.05;57.80
72308;BME280;60257;42.638;23.376;2023-04-09T09:31:24;94858.16;;;11.19;56.76
72308;BME280;60257;42.638;23.376;2023-04-09T09:33:50;94847.78;;;11.12;57.17
72308;BME280;60257;42.638;23.376;2023-04-09T09:36:42;94854.41;;;11.11;56.73
72308;BME280;60257;42.638;23.376;2023-04-09T09:39:08;94850.25;;;11.30;56.50
72308;BME280;60257;42.638;23.376;2023-04-09T09:41:40;94845.13;;;11.28;55.75
72308;BME280;60257;42.638;23.376;2023-04-09T09:44:07;94837.69;;;11.29;56.06
72308;BME280;60257;42.638;23.376;2023-04-09T09:46:35;94837.22;;;11.27;55.90
72308;BME280;60257;42.638;23.376;2023-04-09T09:49:01;94845.31;;;10.83;56.45
72308;BME280;60257;42.638;23.376;2023-04-09T09:51:27;94847.22;;;10.95;56.39
72308;BME280;60257;42.638;23.376;2023-04-09T09:53:56;94844.34;;;11.03;55.92
72308;BME280;60257;42.638;23.376;2023-04-09T09:56:29;94839.91;;;10.99;56.40
72308;BME280;60257;42.638;23.376;2023-04-09T10:01:32;94835.13;;;10.84;55.22
72308;BME280;60257;42.638;23.376;2023-04-09T10:03:59;94824.03;;;10.80;55.73
72308;BME280;60257;42.638;23.376;2023-04-09T10:06:26;94825.53;;;10.65;55.97
72308;BME280;60257;42.638;23.376;2023-04-09T10:08:55;94830.19;;;10.77;56.35
72308;BME280;60257;42.638;23.376;2023-04-09T10:11:22;94828.16;;;10.50;55.97
72308;BME280;60257;42.638;23.376;2023-04-09T10:13:58;94814.53;;;10.77;56.57
72308;BME280;60257;42.638;23.376;2023-04-09T10:16:25;94820.16;;;10.81;56.46
72308;BME280;60257;42.638;23.376;2023-04-09T10:18:52;94812.44;;;11.11;55.49
72308;BME280;60257;42.638;23.376;2023-04-09T10:21:37;94811.03;;;11.29;55.71
72308;BME280;60257;42.638;23.376;2023-04-09T10:24:05;94799.38;;;11.48;53.89
72308;BME280;60257;42.638;23.376;2023-04-09T10:26:38;94813.69;;;11.53;55.31
72308;BME280;60257;42.638;23.376;2023-04-09T10:29:09;94804.22;;;11.79;53.95
72308;BME280;60257;42.638;23.376;2023-04-09T10:32:05;94803.44;;;11.94;53.21
72308;BME280;60257;42.638;23.376;2023-04-09T10:34:37;94779.06;;;11.65;52.73
72308;BME280;60257;42.638;23.376;2023-04-09T10:37:06;94792.41;;;12.06;53.18
72308;BME280;60257;42.638;23.376;2023-04-09T10:39:38;94794.03;;;11.95;51.72
72308;BME280;60257;42.638;23.376;2023-04-09T10:42:11;94789.38;;;12.11;52.25
72308;BME280;60257;42.638;23.376;2023-04-09T10:44:39;94777.41;;;12.35;50.95
72308;BME280;60257;42.638;23.376;2023-04-09T10:47:07;94780.94;;;12.67;49.24
72308;BME280;60257;42.638;23.376;2023-04-09T10:49:37;94777.25;;;12.79;48.87
72308;BME280;60257;42.638;23.376;2023-04-09T10:52:08;94773.94;;;12.54;49.18
72308;BME280;60257;42.638;23.376;2023-04-09T10:54:39;94775.72;;;12.46;50.55
72308;BME280;60257;42.638;23.376;2023-04-09T10:57:20;94774.19;;;12.49;50.87
72308;BME280;60257;42.638;23.376;2023-04-09T10:59:48;94765.16;;;12.32;50.50
72308;BME280;60257;42.638;23.376;2023-04-09T11:07:32;94748.28;;;11.87;50.35
72308;BME280;60257;42.638;23.376;2023-04-09T11:09:59;94749.38;;;11.82;50.32
72308;BME280;60257;42.638;23.376;2023-04-09T11:12:24;94752.34;;;11.77;50.10
72308;BME280;60257;42.638;23.376;2023-04-09T11:14:50;94755.25;;;11.69;51.22
72308;BME280;60257;42.638;23.376;2023-04-09T11:17:17;94759.50;;;11.66;50.81
72308;BME280;60257;42.638;23.376;2023-04-09T11:19:43;94753.81;;;11.59;52.18
72308;BME280;60257;42.638;23.376;2023-04-09T11:22:09;94747.25;;;11.64;53.10
72308;BME280;60257;42.638;23.376;2023-04-09T11:24:41;94750.44;;;11.66;53.55
72308;BME280;60257;42.638;23.376;2023-04-09T11:27:07;94754.34;;;11.65;53.27
72308;BME280;60257;42.638;23.376;2023-04-09T11:29:36;94748.69;;;11.73;51.68
72308;BME280;60257;42.638;23.376;2023-04-09T11:32:01;94750.97;;;11.99;51.96
72308;BME280;60257;42.638;23.376;2023-04-09T11:34:30;94742.63;;;12.11;52.36
72308;BME280;60257;42.638;23.376;2023-04-09T11:36:55;94741.56;;;12.31;51.34
72308;BME280;60257;42.638;23.376;2023-04-09T11:39:23;94736.44;;;12.14;48.87
72308;BME280;60257;42.638;23.376;2023-04-09T11:41:48;94734.22;;;12.20;49.45
72308;BME280;60257;42.638;23.376;2023-04-09T11:44:14;94731.13;;;12.06;49.61
72308;BME280;60257;42.638;23.376;2023-04-09T11:46:40;94733.53;;;12.07;50.26
72308;BME280;60257;42.638;23.376;2023-04-09T11:49:06;94726.84;;;12.08;49.80
72308;BME280;60257;42.638;23.376;2023-04-09T11:51:32;94736.16;;;12.04;47.54
72308;BME280;60257;42.638;23.376;2023-04-09T11:54:04;94732.88;;;11.98;48.97
72308;BME280;60257;42.638;23.376;2023-04-09T11:56:30;94726.06;;;11.92;48.45
72308;BME280;60257;42.638;23.376;2023-04-09T11:58:55;94729.97;;;11.91;48.43
72308;BME280;60257;42.638;23.376;2023-04-09T12:01:21;94723.56;;;11.87;48.54
72308;BME280;60257;42.638;23.376;2023-04-09T12:03:54;94733.13;;;11.93;47.60
72308;BME280;60257;42.638;23.376;2023-04-09T12:06:20;94728.25;;;11.86;47.79
72308;BME280;60257;42.638;23.376;2023-04-09T12:08:53;94717.63;;;11.85;47.91
72308;BME280;60257;42.638;23.376;2023-04-09T12:11:18;94721.00;;;11.94;46.85
72308;BME280;60257;42.638;23.376;2023-04-09T12:13:45;94716.31;;;12.10;44.98
72308;BME280;60257;42.638;23.376;2023-04-09T12:16:13;94717.19;;;12.30;46.06
72308;BME280;60257;42.638;23.376;2023-04-09T12:18:43;94710.44;;;12.43;45.99
72308;BME280;60257;42.638;23.376;2023-04-09T12:21:09;94705.50;;;12.68;45.52
72308;BME280;60257;42.638;23.376;2023-04-09T12:23:34;94713.50;;;13.11;45.06
72308;BME280;60257;42.638;23.376;2023-04-09T12:26:00;94709.63;;;13.32;43.01
72308;BME280;60257;42.638;23.376;2023-04-09T12:28:26;94714.94;;;13.63;43.45
72308;BME280;60257;42.638;23.376;2023-04-09T12:30:53;94708.19;;;13.80;44.03
72308;BME280;60257;42.638;23.376;2023-04-09T12:33:19;94708.06;;;14.18;44.31
72308;BME280;60257;42.638;23.376;2023-04-09T12:35:45;94709.31;;;14.44;42.06
72308;BME280;60257;42.638;23.376;2023-04-09T12:38:11;94693.56;;;14.71;42.96
72308;BME280;60257;42.638;23.376;2023-04-09T12:40:37;94689.59;;;14.98;41.66
72308;BME280;60257;42.638;23.376;2023-04-09T12:43:03;94689.97;;;14.96;41.07
72308;BME280;60257;42.638;23.376;2023-04-09T12:45:29;94692.06;;;15.07;40.45
72308;BME280;60257;42.638;23.376;2023-04-09T12:47:55;94703.31;;;14.64;41.50
72308;BME280;60257;42.638;23.376;2023-04-09T12:50:20;94700.97;;;14.67;42.32
72308;BME280;60257;42.638;23.376;2023-04-09T12:52:46;94688.59;;;14.83;41.21
72308;BME280;60257;42.638;23.376;2023-04-09T12:55:12;94693.94;;;14.69;42.37
72308;BME280;60257;42.638;23.376;2023-04-09T12:57:40;94686.78;;;14.42;41.71
72308;BME280;60257;42.638;23.376;2023-04-09T13:00:06;94676.41;;;14.58;42.34
72308;BME280;60257;42.638;23.376;2023-04-09T13:02:32;94667.22;;;14.77;42.58
72308;BME280;60257;42.638;23.376;2023-04-09T13:04:58;94688.78;;;14.68;42.01
72308;BME280;60257;42.638;23.376;2023-04-09T13:07:23;94680.41;;;14.90;42.01
72308;BME280;60257;42.638;23.376;2023-04-09T13:09:50;94689.59;;;14.98;41.14
72308;BME280;60257;42.638;23.376;2023-04-09T13:12:17;94679.44;;;15.06;38.73
72308;BME280;60257;42.638;23.376;2023-04-09T13:14:44;94684.03;;;14.19;42.31